Weather observations for the past three days for
Charlevoix, Charlevoix Municipal Airport
Imperial (Metric)
Date Time (edt) Wind (mph) Vis. (mi.) Weather Sky Cond. Temperature (ºF) Relative Humidity Wind Chill (°F) Heat Index (°F) Pressure Precipitation (in)
Air Dwpt 6 hour altimeter (in) sea level (mb) 1 hr 3 hr 6 hr
Max. Min.
04 09:55 SE 8 10.00 Partly Cloudy FEW016 SCT026 68 62.6 83% 29.99 0.0
04 09:35 E 10 10.00 A Few Clouds FEW022 FEW120 66.2 62.6 88% 29.97 0.0
04 09:15 E 12 10.00 Mostly Cloudy BKN022 BKN120 66.2 60.8 83% 29.97 0.0
04 08:55 E 14 10.00 Partly Cloudy SCT022 66.2 60.8 83% 29.97 0.0
04 08:35 E 13 10.00 Partly Cloudy SCT020 66.2 60.8 83% 29.96 0.0
04 08:15 E 12 10.00 Mostly Cloudy BKN020 66.2 60.8 83% 29.97 0.0
04 07:55 E 9 10.00 Fair CLR 64.4 60.8 67.6 64.2 88% 29.96 0.0 0.01
04 07:35 E 9 10.00 Fair CLR 64.4 62.6 94% 29.96 0.0
04 07:15 E 14 10.00 Light Rain FEW100 SCT120 64.4 62.6 94% 29.94 0.0
04 06:55 NE 12 10.00 Light Rain FEW022 FEW039 OVC110 64.4 62.6 94% 29.98 0.0 0.01
04 06:35 NE 14 9.00 Light Rain BKN020 BKN027 OVC039 66.2 64.4 94% 29.98 0.0
04 06:15 N 8 10.00 Overcast BKN027 BKN044 OVC110 66.2 64.4 94% 29.98 0.0
04 05:55 SE 3 10.00 Mostly Cloudy SCT085 BKN110 66.2 64.4 94% 29.96 0.0
04 05:35 S 5 10.00 Partly Cloudy SCT046 SCT100 66.2 64.4 94% 29.96 0.0
04 05:15 SE 3 10.00 Overcast OVC046 66.2 64.4 94% 29.96 0.0
04 04:55 E 5 10.00 Partly Cloudy SCT046 66.2 64.4 94% 29.95 0.0
04 04:35 E 6 10.00 Fair CLR 66.2 64.4 94% 29.94 0.0
04 04:15 SE 5 10.00 A Few Clouds FEW048 FEW120 66.2 64.4 94% 29.95 0.0
04 03:55 E 5 10.00 Mostly Cloudy BKN048 BKN120 66.2 64.4 94% 29.94 0.0
04 03:35 S 5 10.00 Partly Cloudy SCT050 SCT110 66.2 64.4 94% 29.96 0.0
04 03:15 SE 5 10.00 Mostly Cloudy BKN050 68 64.4 88% 29.95 0.0
04 02:55 SE 5 10.00 Overcast OVC050 68 64.4 88% 29.96 0.0
04 02:35 E 7 10.00 Mostly Cloudy BKN050 68 64.4 88% 29.95 0.0
04 02:15 E 6 10.00 Partly Cloudy FEW050 FEW090 SCT110 66.2 64.4 94% 29.96 0.0
04 01:55 SE 6 10.00 Mostly Cloudy BKN070 BKN090 BKN120 68 64.4 71.6 64.6 88% 29.97 0.0
04 01:35 SE 5 10.00 Overcast OVC060 66.2 62.6 88% 29.98 0.0
04 01:15 SE 3 10.00 Mostly Cloudy SCT060 BKN090 66.2 62.6 88% 29.98 0.0
04 00:55 E 5 10.00 Partly Cloudy SCT090 66.2 62.6 88% 29.98 0.0
04 00:35 SE 5 10.00 Partly Cloudy SCT090 66.2 62.6 88% 29.98 0.0
04 00:15 SE 3 10.00 Partly Cloudy SCT090 64.4 62.6 94% 29.99 0.0
03 23:55 SE 2 10.00 A Few Clouds FEW090 66.2 62.6 88% 29.99 0.0
03 23:35 E 3 10.00 A Few Clouds FEW090 66.2 62.6 88% 29.98 0.0
03 23:15 E 5 10.00 Partly Cloudy SCT090 64.4 64.4 100% 29.98 0.0
03 22:55 E 2 10.00 A Few Clouds FEW100 66.2 64.4 94% 29.97 0.0
03 22:35 E 2 10.00 Mostly Cloudy BKN100 66.2 64.4 94% 29.97 0.0
03 22:15 SE 2 10.00 Partly Cloudy SCT100 68 64.4 88% 29.97 0.0
03 21:55 Vrbl 2 10.00 Partly Cloudy SCT100 66.2 64.4 94% 29.97 0.0
03 21:35 SW 1 10.00 A Few Clouds FEW100 66.2 64.4 94% 29.97 0.0
03 21:15 SW 2 10.00 Mostly Cloudy BKN100 68 64.4 88% 29.96 0.0
03 20:55 W 1 10.00 Mostly Cloudy BKN100 69.8 64.4 83% 29.95 0.0
03 20:35 Vrbl 1 10.00 A Few Clouds FEW100 69.8 62.6 78% 29.95 0.0
03 20:15 N 3 10.00 Fair CLR 69.8 62.6 78% 29.94 0.0
03 19:55 N 5 10.00 Fair CLR 71.6 62.6 77.5 70.7 73% 29.94 0.0
03 19:35 N 3 10.00 Fair CLR 73.4 62.6 69% 29.94 0.0
03 19:15 NW 3 10.00 Fair CLR 73.4 62.6 69% 29.94 0.0
03 18:55 N 5 10.00 Fair CLR 73.4 62.6 69% 29.93 0.0
03 18:35 N 3 10.00 Mostly Cloudy BKN080 73.4 62.6 69% 29.93 0.0
03 18:15 N 6 10.00 Overcast OVC080 71.6 64.4 78% 29.92 0.0
03 17:55 N 8 10.00 Mostly Cloudy BKN090 73.4 64.4 74% 29.91 0.0
03 17:35 N 12 10.00 Partly Cloudy SCT090 75.2 60.8 61% 77 29.9 0.0
03 17:15 NE 9 10.00 Fair CLR 77 57.2 51% 79 29.9 0.0
03 16:55 NE 10 10.00 Fair CLR 77 60.8 57% 79 29.91 0.0
03 16:35 NE 8 10.00 Fair CLR 77 60.8 57% 79 29.93 0.0
03 16:15 NE 8 10.00 Fair CLR 75.2 62.6 65% 77 29.93 0.0
03 15:55 N 6 10.00 Fair CLR 73.4 64.4 74% 29.94 0.0
03 15:35 N 5 10.00 A Few Clouds FEW043 73.4 62.6 69% 29.95 0.0
03 15:15 N 5 10.00 Partly Cloudy SCT045 73.4 62.6 69% 29.97 0.0
03 14:55 N 3 10.00 Partly Cloudy SCT045 SCT075 71.6 62.6 73% 29.98 0.0
03 14:35 N 5 10.00 Mostly Cloudy BKN075 BKN085 71.6 62.6 73% 29.99 0.0
03 14:15 NW 3 10.00 Overcast BKN060 OVC080 71.6 62.6 73% 30.01 0.0
03 13:55 N 6 10.00 Overcast OVC080 71.6 62.6 73.9 62.2 73% 29.99 0.0
03 13:35 N 8 10.00 Overcast OVC080 71.6 62.6 73% 29.98 0.0
03 13:15 E 7 10.00 Mostly Cloudy BKN080 73.4 59 61% 29.96 0.0
03 12:55 E 7 10.00 Overcast OVC080 73.4 62.6 69% 29.95 0.0
03 12:35 E 6 10.00 Mostly Cloudy BKN080 73.4 60.8 65% 29.96 0.0
03 12:15 N 7 10.00 Fair CLR 73.4 62.6 69% 29.96 0.0
03 11:55 E 6 10.00 Fair CLR 73.4 62.6 69% 29.95 0.0
03 11:35 E 7 10.00 Fair CLR 71.6 62.6 73% 29.95 0.0
03 11:15 E 6 10.00 A Few Clouds FEW043 FEW100 71.6 62.6 73% 29.96 0.0
03 10:55 Vrbl 5 10.00 Fair CLR 71.6 62.6 73% 29.97 0.0
03 10:35 E 3 10.00 Fair CLR 69.8 62.6 78% 29.96 0.0
03 10:15 E 3 10.00 Fair CLR 69.8 64.4 83% 29.96 0.0
03 09:55 E 5 10.00 Fair CLR 69.8 64.4 83% 29.96 0.0
03 09:35 E 6 10.00 Partly Cloudy SCT048 68 64.4 88% 29.96 0.0
03 09:15 E 6 10.00 Mostly Cloudy BKN048 66.2 64.4 94% 29.96 0.0
03 08:55 E 7 10.00 Fair CLR 66.2 62.6 88% 29.97 0.0
03 08:35 SE 3 10.00 Fair CLR 64.4 62.6 94% 29.97 0.0
03 08:15 SE 3 10.00 Partly Cloudy SCT040 64.4 62.6 94% 29.97 0.0
03 07:55 S 3 10.00 Mostly Cloudy BKN040 62.6 62.6 62.4 59.4 100% 29.97 0.0
03 07:35 SE 3 10.00 Fair CLR 60.8 60.8 100% 29.96 0.0
03 07:15 SE 3 10.00 Fair CLR 62.6 60.8 94% 29.96 0.0
03 06:55 SE 2 10.00 A Few Clouds FEW050 60.8 60.8 100% 29.95 0.0
03 06:35 SE 3 10.00 Mostly Cloudy SCT006 BKN050 62.6 62.6 100% 29.95 0.0
03 06:15 SE 3 10.00 Partly Cloudy SCT006 60.8 60.8 100% 29.95 0.0
03 05:55 SE 2 10.00 A Few Clouds FEW049 62.6 60.8 94% 29.95 0.0
03 05:35 SE 3 10.00 Partly Cloudy SCT049 60.8 60.8 100% 29.95 0.0
03 05:15 SE 2 10.00 Fair CLR 62.6 60.8 94% 29.95 0.0
03 04:55 SE 3 10.00 A Few Clouds FEW050 60.8 60.8 100% 29.94 0.0
03 04:35 SE 1 10.00 Partly Cloudy SCT050 62.6 60.8 94% 29.94 0.0
03 04:15 SE 2 10.00 Mostly Cloudy BKN055 60.8 60.8 100% 29.95 0.0
03 03:55 SE 2 10.00 Fair CLR 60.8 59 94% 29.95 0.0
03 03:35 S 2 10.00 Fair CLR 60.8 59 94% 29.94 0.0
03 03:15 E 2 10.00 Fair CLR 60.8 60.8 100% 29.93 0.0
03 02:55 SE 1 10.00 Fair CLR 60.8 59 94% 29.93 0.0
03 02:35 SE 1 10.00 Fair CLR 60.8 59 94% 29.93 0.0
03 02:15 S 3 10.00 Fair CLR 60.8 59 94% 29.94 0.0
03 01:55 Calm 10.00 Fair CLR 60.8 60.8 71.6 60.8 100% 29.93 0.0
03 01:35 E 1 10.00 Fair CLR 60.8 60.8 100% 29.93 0.0
03 01:15 S 1 10.00 Fair CLR 60.8 60.8 100% 29.94 0.0
03 00:55 S 1 10.00 Fair CLR 60.8 59 94% 29.93 0.0
03 00:35 S 1 10.00 Fair CLR 60.8 60.8 100% 29.93 0.0
03 00:15 SW 1 10.00 Fair CLR 62.6 60.8 94% 29.93 0.0
02 23:55 S 1 10.00 Fair CLR 62.6 60.8 94% 29.93 0.0
02 23:35 N 2 10.00 Fair CLR 62.6 60.8 94% 29.92 0.0
02 23:15 S 1 10.00 Fair CLR 62.6 60.8 94% 29.92 0.0
02 22:55 SW 1 10.00 Fair CLR 62.6 62.6 100% 29.92 0.0
02 22:35 SW 2 10.00 Fair CLR 64.4 62.6 94% 29.92 0.0
02 22:15 S 2 10.00 Fair CLR 64.4 62.6 94% 29.92 0.0
02 21:55 SE 1 10.00 Partly Cloudy SCT095 66.2 62.6 88% 29.91 0.0
02 21:35 S 1 10.00 Mostly Cloudy BKN095 66.2 62.6 88% 29.91 0.0
02 21:15 Calm 10.00 A Few Clouds FEW095 66.2 64.4 94% 29.91 0.0
02 20:55 SW 2 10.00 Fair CLR 66.2 62.6 88% 29.9 0.0
02 20:35 Calm 10.00 Fair CLR 68 62.6 83% 29.9 0.0
02 20:15 N 2 10.00 Fair CLR 69.8 62.6 78% 29.9 0.0
02 19:55 N 2 10.00 A Few Clouds FEW100 71.6 60.8 77.7 71.1 69% 29.9 0.0
02 19:35 NW 5 10.00 Fair CLR 71.6 62.6 73% 29.91 0.0
02 19:15 W 5 10.00 Fair CLR 73.4 62.6 69% 29.9 0.0
02 18:55 NW 5 10.00 Fair CLR 73.4 62.6 69% 29.9 0.0
02 18:35 W 6 10.00 Fair CLR 73.4 62.6 69% 29.91 0.0
02 18:15 W 7 10.00 Fair CLR 73.4 62.6 69% 29.9 0.0
02 17:55 NW 6 10.00 Fair CLR 73.4 62.6 69% 29.91 0.0
02 17:35 W 7 10.00 Fair CLR 75.2 62.6 65% 77 29.91 0.0
02 17:15 W 7 10.00 Fair CLR 75.2 62.6 65% 77 29.91 0.0
02 16:55 W 6 10.00 Fair CLR 75.2 62.6 65% 77 29.9 0.0
02 16:35 NW 6 10.00 Fair CLR 75.2 62.6 65% 77 29.91 0.0
02 16:15 W 7 10.00 Fair CLR 75.2 62.6 65% 77 29.92 0.0
02 15:55 NW 7 10.00 Fair CLR 75.2 62.6 65% 77 29.92 0.0
02 15:35 W 8 10.00 Fair CLR 75.2 62.6 65% 77 29.93 0.0
02 15:15 W 9 10.00 Fair CLR 75.2 62.6 65% 77 29.93 0.0
02 14:55 NW 12 10.00 Fair CLR 77 62.6 61% 79 29.93 0.0
02 14:35 W 9 10.00 Fair CLR 77 62.6 61% 79 29.93 0.0
02 14:15 W 8 10.00 Fair CLR 77 62.6 61% 79 29.93 0.0
02 13:55 W 7 10.00 Fair CLR 75.2 62.6 75.9 66.7 65% 77 29.93 0.0
02 13:35 W 10 10.00 Fair CLR 75.2 64.4 69% 77 29.93 0.0
02 13:15 SW 7 10.00 Fair CLR 73.4 62.6 69% 29.93 0.0
02 12:55 S 6 10.00 Fair CLR 71.6 64.4 78% 29.92 0.0
02 12:35 SW 6 10.00 Fair CLR 71.6 64.4 78% 29.92 0.0
02 12:15 SW 5 10.00 Fair CLR 71.6 64.4 78% 29.93 0.0
02 11:55 W 6 10.00 Fair CLR 71.6 64.4 78% 29.92 0.0
02 11:35 W 8 10.00 Fair CLR 69.8 66.2 88% 29.92 0.0
02 11:15 W 9 10.00 Light Rain FEW036 SCT070 BKN085 69.8 66.2 88% 29.93 0.0
02 10:55 W 12 10.00 Light Rain FEW055 SCT070 BKN090 69.8 66.2 88% 29.95 0.0
02 10:35 W 12 10.00 Fair CLR 69.8 66.2 88% 29.94 0.0
02 10:15 W 3 10.00 Fair CLR 69.8 66.2 88% 29.91 0.0
02 09:55 SW 5 10.00 A Few Clouds FEW110 68 66.2 94% 29.89 0.0 0.02
02 09:35 SE 9 10.00 Light Rain FEW049 SCT090 BKN110 68 64.4 88% 29.84 0.0
02 09:15 NW 6 10.00 Light Rain BKN100 BKN110 68 64.4 88% 29.91 0.0
02 08:55 W 14 10.00 Rain BKN110 68 64.4 88% 29.97 0.0 0.04
02 08:35 W 17 G 23 10.00 Light Rain FEW110 69.8 66.2 88% 29.99 0.0
02 08:15 W 13 10.00 A Few Clouds FEW100 69.8 66.2 88% 29.98 0.0
02 07:55 W 9 10.00 A Few Clouds FEW100 69.8 68 75.9 66.9 94% 29.95 0.0
02 07:35 W 5 10.00 Fair CLR 68 66.2 94% 29.92 0.0
02 07:15 SW 6 10.00 Fair CLR 68 66.2 94% 29.91 0.0
02 06:55 NE 1 5.00 Fog/Mist CLR 68 68 100% 29.88 0.0
02 06:35 W 1 6.00 Fog/Mist CLR 68 68 100% 29.89 0.0
02 06:15 W 1 8.00 Fair CLR 68 68 100% 29.89 0.0
02 05:55 SW 5 7.00 Fog/Mist CLR 68 68 100% 29.9 0.0
02 05:35 SW 7 5.00 Fog/Mist CLR 68 68 100% 29.9 0.0
02 05:15 SW 5 4.00 Fog/Mist CLR 68 68 100% 29.89 0.0
02 04:55 W 2 5.00 Fog/Mist CLR 68 68 100% 29.88 0.0
02 04:35 W 3 5.00 Fog/Mist CLR 69.8 69.8 100% 29.88 0.0
02 04:15 W 3 6.00 Fog/Mist CLR 69.8 69.8 100% 29.88 0.0
02 03:55 W 7 6.00 Fog/Mist CLR 71.6 69.8 94% 29.88 0.0
02 03:35 W 9 8.00 Fair CLR 71.6 71.6 100% 29.89 0.0
02 03:15 W 9 8.00 Partly Cloudy SCT010 SCT013 73.4 71.6 94% 29.89 0.0
02 02:55 W 12 10.00 Fair CLR 73.4 71.6 94% 29.89 0.0
02 02:35 W 12 10.00 A Few Clouds FEW060 75.2 71.6 89% 75 29.88 0.0
02 02:15 W 10 10.00 A Few Clouds FEW060 75.2 73.4 94% 74 29.87 0.0
02 01:55 SW 7 10.00 Partly Cloudy SCT060 75.2 73.4 80.6 73 94% 74 29.87 0.0
02 01:35 SW 7 10.00 Partly Cloudy SCT060 75.2 73.4 94% 74 29.87 0.0
02 01:15 SW 7 10.00 Fair CLR 75.2 73.4 94% 74 29.86 0.0
02 00:55 SW 6 10.00 Fair CLR 75.2 73.4 94% 74 29.87 0.0
02 00:35 S 6 10.00 Fair CLR 75.2 73.4 94% 74 29.87 0.0
02 00:15 S 6 10.00 Fair CLR 75.2 73.4 94% 74 29.87 0.0
01 23:55 SW 7 10.00 Fair CLR 75.2 73.4 94% 74 29.87 0.0
01 23:35 SW 6 10.00 Fair CLR 75.2 73.4 94% 74 29.87 0.0
01 23:15 S 6 10.00 Fair CLR 75.2 73.4 94% 74 29.88 0.0
01 22:55 S 5 10.00 Fair CLR 73.4 71.6 94% 29.88 0.0
01 22:35 S 2 9.00 Fair CLR 73.4 71.6 94% 29.88 0.0
01 22:15 S 3 7.00 Fair CLR 73.4 73.4 100% 29.88 0.0
01 21:55 SW 3 8.00 Fair CLR 73.4 73.4 100% 29.88 0.0
01 21:35 SW 5 10.00 Fair CLR 73.4 73.4 100% 29.88 0.0
01 21:15 W 6 10.00 Fair CLR 75.2 73.4 94% 74 29.88 0.0
01 20:55 W 3 10.00 Fair CLR 75.2 71.6 89% 75 29.88 0.0
01 20:35 W 5 10.00 Fair CLR 77 71.6 83% 78 29.88 0.0
01 20:15 SW 3 10.00 Fair CLR 78.8 71.6 79% 82 29.88 0.0
01 19:55 SW 5 10.00 Fair CLR 80.6 71.6 86.2 78.3 74% 85 29.87 0.0
01 19:35 SW 5 10.00 Fair CLR 82.4 71.6 70% 87 29.87 0.0
01 19:15 S 5 10.00 Fair CLR 84.2 71.6 66% 90 29.87 0.0
01 18:55 SW 7 10.00 Fair CLR 84.2 71.6 66% 90 29.88 0.0
01 18:35 SW 8 10.00 Fair CLR 86 71.6 62% 92 29.88 0.0
01 18:15 W 5 10.00 Fair CLR 86 73.4 66% 93 29.88 0.0
01 17:55 W 8 10.00 Fair CLR 84.2 71.6 66% 90 29.88 0.0
01 17:15 NW 7 10.00 Fair CLR 84.2 71.6 66% 90 29.88 0.0
01 16:55 NW 7 10.00 Fair CLR 84.2 69.8 62% 88 29.89 0.0
01 16:35 NW 7 10.00 Fair CLR 84.2 71.6 66% 90 29.89 0.0
01 16:15 N 5 10.00 Fair CLR 82.4 71.6 70% 87 29.9 0.0
01 15:55 NW 6 10.00 Fair CLR 82.4 73.4 74% 88 29.9 0.0
01 15:35 NW 7 10.00 Fair CLR 80.6 73.4 79% 85 29.91 0.0
01 15:15 N 8 10.00 Fair CLR 80.6 73.4 79% 85 29.92 0.0
01 14:55 N 8 10.00 Fair CLR 80.6 73.4 79% 85 29.92 0.0
01 14:35 N 6 10.00 Fair CLR 78.8 73.4 84% 82 29.93 0.0
01 14:15 N 7 10.00 A Few Clouds FEW027 78.8 73.4 84% 82 29.93 0.0
01 13:55 NW 7 10.00 A Few Clouds FEW027 78.8 73.4 80.8 66.9 84% 82 29.94 0.0
01 13:35 N 8 10.00 Fair CLR 78.8 73.4 84% 82 29.94 0.0
01 13:15 NW 7 10.00 A Few Clouds FEW023 80.6 73.4 79% 85 29.94 0.0
01 12:55 Vrbl 6 10.00 Partly Cloudy SCT021 78.8 73.4 84% 82 29.94 0.0
01 12:35 N 6 10.00 Mostly Cloudy BKN017 78.8 73.4 84% 82 29.94 0.0
01 12:15 E 5 10.00 Partly Cloudy SCT015 78.8 71.6 79% 82 29.94 0.0
01 11:55 S 6 10.00 Mostly Cloudy BKN011 77 71.6 83% 78 29.94 0.0
01 11:35 Vrbl 5 10.00 Mostly Cloudy BKN009 77 73.4 89% 78 29.94 0.0
01 11:15 SE 7 10.00 Mostly Cloudy BKN011 75.2 71.6 89% 75 29.94 0.0
01 10:55 E 5 10.00 Overcast OVC011 73.4 71.6 94% 29.95 0.0
01 10:35 E 6 10.00 Overcast OVC011 73.4 69.8 89% 29.95 0.0
01 10:15 E 5 10.00 Mostly Cloudy BKN009 73.4 71.6 94% 29.94 0.0
Date Time (edt) Wind (mph) Vis. (mi.) Weather Sky Cond. Air Dwpt Max. Min. Relative Humidity Wind Chill (°F) Heat Index (°F) altimeter (in) sea level (mb) 1 hr 3 hr 6 hr
6 hour
Temperature (ºF) Pressure Precipitation (in)